sensor_id;sensor_type;location;lat;lon;timestamp;temperature;humidity
7077;DHT22;3579;48.956;9.154;2022-12-29T00:02:12;17.80;51.20
7077;DHT22;3579;48.956;9.154;2022-12-29T00:04:38;17.70;51.00
7077;DHT22;3579;48.956;9.154;2022-12-29T00:07:05;17.70;51.00
7077;DHT22;3579;48.956;9.154;2022-12-29T00:09:32;17.70;51.00
7077;DHT22;3579;48.956;9.154;2022-12-29T00:11:58;17.70;51.60
7077;DHT22;3579;48.956;9.154;2022-12-29T00:14:25;17.70;51.10
7077;DHT22;3579;48.956;9.154;2022-12-29T00:17:09;17.70;51.60
7077;DHT22;3579;48.956;9.154;2022-12-29T00:19:36;17.70;51.10
7077;DHT22;3579;48.956;9.154;2022-12-29T00:22:20;17.70;51.10
7077;DHT22;3579;48.956;9.154;2022-12-29T00:25:07;17.70;51.10
7077;DHT22;3579;48.956;9.154;2022-12-29T00:27:52;17.70;51.10
7077;DHT22;3579;48.956;9.154;2022-12-29T00:30:36;17.70;51.20
7077;DHT22;3579;48.956;9.154;2022-12-29T00:33:24;17.70;51.20
7077;DHT22;3579;48.956;9.154;2022-12-29T00:36:16;17.70;51.20
7077;DHT22;3579;48.956;9.154;2022-12-29T00:38:48;17.70;51.20
7077;DHT22;3579;48.956;9.154;2022-12-29T00:41:34;17.70;51.20
7077;DHT22;3579;48.956;9.154;2022-12-29T00:44:18;17.70;51.20
7077;DHT22;3579;48.956;9.154;2022-12-29T00:46:45;17.70;51.20
7077;DHT22;3579;48.956;9.154;2022-12-29T00:49:13;17.70;51.20
7077;DHT22;3579;48.956;9.154;2022-12-29T00:52:03;17.70;51.20
7077;DHT22;3579;48.956;9.154;2022-12-29T00:54:32;17.70;51.20
7077;DHT22;3579;48.956;9.154;2022-12-29T00:56:58;17.70;51.20
7077;DHT22;3579;48.956;9.154;2022-12-29T00:59:25;17.70;51.20
7077;DHT22;3579;48.956;9.154;2022-12-29T01:01:52;17.70;51.20
7077;DHT22;3579;48.956;9.154;2022-12-29T01:04:20;17.70;51.20
7077;DHT22;3579;48.956;9.154;2022-12-29T01:06:47;17.70;51.20
7077;DHT22;3579;48.956;9.154;2022-12-29T01:09:13;17.70;51.20
7077;DHT22;3579;48.956;9.154;2022-12-29T01:11:58;17.70;51.20
7077;DHT22;3579;48.956;9.154;2022-12-29T01:14:24;17.70;51.20
7077;DHT22;3579;48.956;9.154;2022-12-29T01:16:51;17.70;51.20
7077;DHT22;3579;48.956;9.154;2022-12-29T01:19:18;17.70;51.20
7077;DHT22;3579;48.956;9.154;2022-12-29T01:21:45;17.70;51.20
7077;DHT22;3579;48.956;9.154;2022-12-29T01:24:11;17.70;51.30
7077;DHT22;3579;48.956;9.154;2022-12-29T01:26:38;17.70;51.30
7077;DHT22;3579;48.956;9.154;2022-12-29T01:29:04;17.70;51.30
7077;DHT22;3579;48.956;9.154;2022-12-29T01:31:30;17.70;51.30
7077;DHT22;3579;48.956;9.154;2022-12-29T01:33:56;17.70;51.20
7077;DHT22;3579;48.956;9.154;2022-12-29T01:36:24;17.70;51.30
7077;DHT22;3579;48.956;9.154;2022-12-29T01:38:50;17.70;51.30
7077;DHT22;3579;48.956;9.154;2022-12-29T01:41:16;17.70;51.80
7077;DHT22;3579;48.956;9.154;2022-12-29T01:43:56;17.70;51.30
7077;DHT22;3579;48.956;9.154;2022-12-29T01:46:39;17.70;51.30
7077;DHT22;3579;48.956;9.154;2022-12-29T01:49:26;17.70;51.30
7077;DHT22;3579;48.956;9.154;2022-12-29T01:51:59;17.70;51.30
7077;DHT22;3579;48.956;9.154;2022-12-29T01:54:28;17.70;51.30
7077;DHT22;3579;48.956;9.154;2022-12-29T01:57:00;17.70;51.30
7077;DHT22;3579;48.956;9.154;2022-12-29T01:59:31;17.60;51.30
7077;DHT22;3579;48.956;9.154;2022-12-29T02:01:59;17.60;51.30
7077;DHT22;3579;48.956;9.154;2022-12-29T02:04:27;17.60;51.30
7077;DHT22;3579;48.956;9.154;2022-12-29T02:07:01;17.60;51.30
7077;DHT22;3579;48.956;9.154;2022-12-29T02:09:27;17.70;51.40
7077;DHT22;3579;48.956;9.154;2022-12-29T02:11:54;17.60;51.30
7077;DHT22;3579;48.956;9.154;2022-12-29T02:14:20;17.60;51.30
7077;DHT22;3579;48.956;9.154;2022-12-29T02:19:49;17.60;51.50
7077;DHT22;3579;48.956;9.154;2022-12-29T02:25:22;17.60;51.30
7077;DHT22;3579;48.956;9.154;2022-12-29T02:28:18;17.60;51.30
7077;DHT22;3579;48.956;9.154;2022-12-29T02:39:23;17.70;51.40
7077;DHT22;3579;48.956;9.154;2022-12-29T02:50:08;17.70;51.40
7077;DHT22;3579;48.956;9.154;2022-12-29T02:52:48;17.70;51.40
7077;DHT22;3579;48.956;9.154;2022-12-29T02:55:15;17.70;51.40
7077;DHT22;3579;48.956;9.154;2022-12-29T02:57:41;17.70;51.50
7077;DHT22;3579;48.956;9.154;2022-12-29T03:00:10;17.60;51.40
7077;DHT22;3579;48.956;9.154;2022-12-29T03:08:39;17.60;51.40
7077;DHT22;3579;48.956;9.154;2022-12-29T03:11:10;17.60;51.40
7077;DHT22;3579;48.956;9.154;2022-12-29T03:14:22;17.60;51.40
7077;DHT22;3579;48.956;9.154;2022-12-29T03:20:07;17.60;51.40
7077;DHT22;3579;48.956;9.154;2022-12-29T03:22:41;17.60;51.50
7077;DHT22;3579;48.956;9.154;2022-12-29T03:25:15;17.60;51.40
7077;DHT22;3579;48.956;9.154;2022-12-29T03:27:53;17.60;51.40
7077;DHT22;3579;48.956;9.154;2022-12-29T03:30:21;17.60;51.50
7077;DHT22;3579;48.956;9.154;2022-12-29T03:32:54;17.60;51.40
7077;DHT22;3579;48.956;9.154;2022-12-29T03:35:24;17.60;51.50
7077;DHT22;3579;48.956;9.154;2022-12-29T03:38:15;17.60;51.50
7077;DHT22;3579;48.956;9.154;2022-12-29T03:40:49;17.60;51.50
7077;DHT22;3579;48.956;9.154;2022-12-29T03:43:17;17.60;51.50
7077;DHT22;3579;48.956;9.154;2022-12-29T03:45:44;17.60;51.60
7077;DHT22;3579;48.956;9.154;2022-12-29T03:48:10;17.60;51.50
7077;DHT22;3579;48.956;9.154;2022-12-29T03:50:36;17.60;51.50
7077;DHT22;3579;48.956;9.154;2022-12-29T03:53:02;17.50;51.40
7077;DHT22;3579;48.956;9.154;2022-12-29T03:55:28;17.60;51.50
7077;DHT22;3579;48.956;9.154;2022-12-29T03:57:55;17.60;51.50
7077;DHT22;3579;48.956;9.154;2022-12-29T04:00:21;17.60;51.50
7077;DHT22;3579;48.956;9.154;2022-12-29T04:02:47;17.60;51.50
7077;DHT22;3579;48.956;9.154;2022-12-29T04:05:13;17.60;51.50
7077;DHT22;3579;48.956;9.154;2022-12-29T04:07:39;17.60;51.50
7077;DHT22;3579;48.956;9.154;2022-12-29T04:10:05;17.60;51.50
7077;DHT22;3579;48.956;9.154;2022-12-29T04:12:31;17.60;51.60
7077;DHT22;3579;48.956;9.154;2022-12-29T04:14:57;17.60;51.60
7077;DHT22;3579;48.956;9.154;2022-12-29T04:17:23;17.60;51.50
7077;DHT22;3579;48.956;9.154;2022-12-29T04:19:50;17.60;51.50
7077;DHT22;3579;48.956;9.154;2022-12-29T04:22:16;17.60;51.60
7077;DHT22;3579;48.956;9.154;2022-12-29T04:24:42;17.60;51.50
7077;DHT22;3579;48.956;9.154;2022-12-29T04:27:08;17.60;51.60
7077;DHT22;3579;48.956;9.154;2022-12-29T04:29:34;17.60;51.60
7077;DHT22;3579;48.956;9.154;2022-12-29T04:32:00;17.60;51.60
7077;DHT22;3579;48.956;9.154;2022-12-29T04:34:29;17.60;51.60
7077;DHT22;3579;48.956;9.154;2022-12-29T04:36:56;17.60;51.60
7077;DHT22;3579;48.956;9.154;2022-12-29T04:39:22;17.60;51.60
7077;DHT22;3579;48.956;9.154;2022-12-29T04:41:48;17.60;51.60
7077;DHT22;3579;48.956;9.154;2022-12-29T04:44:15;17.60;51.60
7077;DHT22;3579;48.956;9.154;2022-12-29T04:46:41;17.60;51.60
7077;DHT22;3579;48.956;9.154;2022-12-29T04:49:07;17.60;51.60
7077;DHT22;3579;48.956;9.154;2022-12-29T04:51:34;17.60;51.60
7077;DHT22;3579;48.956;9.154;2022-12-29T04:54:01;17.60;51.60
7077;DHT22;3579;48.956;9.154;2022-12-29T04:56:27;17.60;51.60
7077;DHT22;3579;48.956;9.154;2022-12-29T04:58:54;17.60;51.60
7077;DHT22;3579;48.956;9.154;2022-12-29T05:01:20;17.60;51.70
7077;DHT22;3579;48.956;9.154;2022-12-29T05:03:46;17.60;51.60
7077;DHT22;3579;48.956;9.154;2022-12-29T05:06:12;17.60;51.60
7077;DHT22;3579;48.956;9.154;2022-12-29T05:08:38;17.60;51.60
7077;DHT22;3579;48.956;9.154;2022-12-29T05:11:05;17.60;52.20
7077;DHT22;3579;48.956;9.154;2022-12-29T05:13:31;17.60;51.70
7077;DHT22;3579;48.956;9.154;2022-12-29T05:15:57;17.60;51.70
7077;DHT22;3579;48.956;9.154;2022-12-29T05:18:23;17.60;51.70
7077;DHT22;3579;48.956;9.154;2022-12-29T05:20:50;17.60;51.70
7077;DHT22;3579;48.956;9.154;2022-12-29T05:23:16;17.60;51.70
7077;DHT22;3579;48.956;9.154;2022-12-29T05:25:43;17.60;51.70
7077;DHT22;3579;48.956;9.154;2022-12-29T05:28:11;17.60;51.70
7077;DHT22;3579;48.956;9.154;2022-12-29T05:30:37;17.60;51.70
7077;DHT22;3579;48.956;9.154;2022-12-29T05:33:03;17.60;51.70
7077;DHT22;3579;48.956;9.154;2022-12-29T05:35:32;17.60;51.80
7077;DHT22;3579;48.956;9.154;2022-12-29T05:37:59;17.60;51.80
7077;DHT22;3579;48.956;9.154;2022-12-29T05:40:26;17.60;51.80
7077;DHT22;3579;48.956;9.154;2022-12-29T05:42:52;17.60;51.80
7077;DHT22;3579;48.956;9.154;2022-12-29T05:45:18;17.60;51.90
7077;DHT22;3579;48.956;9.154;2022-12-29T05:47:44;17.60;51.80
7077;DHT22;3579;48.956;9.154;2022-12-29T05:50:11;17.70;51.90
7077;DHT22;3579;48.956;9.154;2022-12-29T05:52:37;17.70;52.00
7077;DHT22;3579;48.956;9.154;2022-12-29T05:55:03;17.70;52.00
7077;DHT22;3579;48.956;9.154;2022-12-29T05:57:30;17.70;51.90
7077;DHT22;3579;48.956;9.154;2022-12-29T05:59:57;17.70;52.00
7077;DHT22;3579;48.956;9.154;2022-12-29T06:02:23;17.80;52.00
7077;DHT22;3579;48.956;9.154;2022-12-29T06:04:49;17.70;52.00
7077;DHT22;3579;48.956;9.154;2022-12-29T06:07:16;17.70;52.00
7077;DHT22;3579;48.956;9.154;2022-12-29T06:09:42;17.80;52.10
7077;DHT22;3579;48.956;9.154;2022-12-29T06:12:08;17.80;52.10
7077;DHT22;3579;48.956;9.154;2022-12-29T06:14:35;17.70;52.00
7077;DHT22;3579;48.956;9.154;2022-12-29T06:17:01;17.80;52.10
7077;DHT22;3579;48.956;9.154;2022-12-29T06:19:27;17.80;52.10
7077;DHT22;3579;48.956;9.154;2022-12-29T06:21:53;17.80;52.10
7077;DHT22;3579;48.956;9.154;2022-12-29T06:24:19;17.80;52.10
7077;DHT22;3579;48.956;9.154;2022-12-29T06:26:45;17.80;52.10
7077;DHT22;3579;48.956;9.154;2022-12-29T06:29:11;17.80;52.10
7077;DHT22;3579;48.956;9.154;2022-12-29T06:31:39;17.80;52.00
7077;DHT22;3579;48.956;9.154;2022-12-29T06:34:05;17.80;52.00
7077;DHT22;3579;48.956;9.154;2022-12-29T06:36:31;17.80;52.00
7077;DHT22;3579;48.956;9.154;2022-12-29T06:38:57;17.80;52.00
7077;DHT22;3579;48.956;9.154;2022-12-29T06:41:23;17.80;52.00
7077;DHT22;3579;48.956;9.154;2022-12-29T06:43:49;17.80;52.00
7077;DHT22;3579;48.956;9.154;2022-12-29T06:46:15;17.80;52.00
7077;DHT22;3579;48.956;9.154;2022-12-29T06:48:41;17.80;52.00
7077;DHT22;3579;48.956;9.154;2022-12-29T06:51:08;17.80;52.10
7077;DHT22;3579;48.956;9.154;2022-12-29T06:53:34;17.80;52.10
7077;DHT22;3579;48.956;9.154;2022-12-29T06:56:00;17.80;52.00
7077;DHT22;3579;48.956;9.154;2022-12-29T06:58:26;17.80;52.10
7077;DHT22;3579;48.956;9.154;2022-12-29T07:00:52;17.80;52.10
7077;DHT22;3579;48.956;9.154;2022-12-29T07:03:18;17.80;52.10
7077;DHT22;3579;48.956;9.154;2022-12-29T07:05:45;17.80;52.10
7077;DHT22;3579;48.956;9.154;2022-12-29T07:08:11;17.80;52.10
7077;DHT22;3579;48.956;9.154;2022-12-29T07:10:37;17.90;52.20
7077;DHT22;3579;48.956;9.154;2022-12-29T07:13:03;17.90;52.10
7077;DHT22;3579;48.956;9.154;2022-12-29T07:15:29;17.90;52.10
7077;DHT22;3579;48.956;9.154;2022-12-29T07:17:55;17.90;52.10
7077;DHT22;3579;48.956;9.154;2022-12-29T07:20:21;17.90;52.10
7077;DHT22;3579;48.956;9.154;2022-12-29T07:22:48;17.90;52.10
7077;DHT22;3579;48.956;9.154;2022-12-29T07:25:14;17.90;52.20
7077;DHT22;3579;48.956;9.154;2022-12-29T07:27:40;17.90;52.10
7077;DHT22;3579;48.956;9.154;2022-12-29T07:30:06;17.90;52.10
7077;DHT22;3579;48.956;9.154;2022-12-29T07:32:33;17.90;52.10
7077;DHT22;3579;48.956;9.154;2022-12-29T07:35:00;17.90;52.10
7077;DHT22;3579;48.956;9.154;2022-12-29T07:37:26;17.90;52.10
7077;DHT22;3579;48.956;9.154;2022-12-29T07:39:53;17.90;52.00
7077;DHT22;3579;48.956;9.154;2022-12-29T07:42:19;17.90;52.00
7077;DHT22;3579;48.956;9.154;2022-12-29T07:44:45;17.90;52.00
7077;DHT22;3579;48.956;9.154;2022-12-29T07:47:16;17.90;52.00
7077;DHT22;3579;48.956;9.154;2022-12-29T07:49:47;17.90;52.00
7077;DHT22;3579;48.956;9.154;2022-12-29T07:52:13;18.00;52.10
7077;DHT22;3579;48.956;9.154;2022-12-29T07:54:39;18.00;52.00
7077;DHT22;3579;48.956;9.154;2022-12-29T07:57:06;17.90;52.00
7077;DHT22;3579;48.956;9.154;2022-12-29T07:59:32;17.90;52.00
7077;DHT22;3579;48.956;9.154;2022-12-29T08:01:58;17.90;52.00
7077;DHT22;3579;48.956;9.154;2022-12-29T08:04:25;17.90;52.00
7077;DHT22;3579;48.956;9.154;2022-12-29T08:06:51;17.90;52.00
7077;DHT22;3579;48.956;9.154;2022-12-29T08:09:18;17.90;52.00
7077;DHT22;3579;48.956;9.154;2022-12-29T08:11:44;17.90;52.00
7077;DHT22;3579;48.956;9.154;2022-12-29T08:14:10;18.00;52.10
7077;DHT22;3579;48.956;9.154;2022-12-29T08:16:37;18.00;52.10
7077;DHT22;3579;48.956;9.154;2022-12-29T08:19:03;18.00;52.10
7077;DHT22;3579;48.956;9.154;2022-12-29T08:21:30;18.00;52.10
7077;DHT22;3579;48.956;9.154;2022-12-29T08:23:57;18.00;52.10
7077;DHT22;3579;48.956;9.154;2022-12-29T08:26:24;18.00;52.10
7077;DHT22;3579;48.956;9.154;2022-12-29T08:28:52;18.00;52.10
7077;DHT22;3579;48.956;9.154;2022-12-29T08:31:19;18.00;52.10
7077;DHT22;3579;48.956;9.154;2022-12-29T08:33:45;18.10;52.20
7077;DHT22;3579;48.956;9.154;2022-12-29T08:36:11;18.10;52.20
7077;DHT22;3579;48.956;9.154;2022-12-29T08:38:37;18.10;52.20
7077;DHT22;3579;48.956;9.154;2022-12-29T08:41:03;18.10;52.20
7077;DHT22;3579;48.956;9.154;2022-12-29T08:43:30;18.10;52.20
7077;DHT22;3579;48.956;9.154;2022-12-29T08:45:57;18.10;52.20
7077;DHT22;3579;48.956;9.154;2022-12-29T08:48:24;18.10;52.20
7077;DHT22;3579;48.956;9.154;2022-12-29T08:50:51;18.10;52.20
7077;DHT22;3579;48.956;9.154;2022-12-29T08:53:18;18.10;52.20
7077;DHT22;3579;48.956;9.154;2022-12-29T08:55:54;18.10;52.20
7077;DHT22;3579;48.956;9.154;2022-12-29T08:58:20;18.10;52.20
7077;DHT22;3579;48.956;9.154;2022-12-29T09:00:46;18.10;52.30
7077;DHT22;3579;48.956;9.154;2022-12-29T09:03:12;18.10;52.30
7077;DHT22;3579;48.956;9.154;2022-12-29T09:05:38;18.10;52.80
7077;DHT22;3579;48.956;9.154;2022-12-29T09:08:04;18.10;52.30
7077;DHT22;3579;48.956;9.154;2022-12-29T09:10:31;18.10;52.30
7077;DHT22;3579;48.956;9.154;2022-12-29T09:12:57;18.10;52.30
7077;DHT22;3579;48.956;9.154;2022-12-29T09:15:24;18.10;52.20
7077;DHT22;3579;48.956;9.154;2022-12-29T09:17:50;18.10;52.30
7077;DHT22;3579;48.956;9.154;2022-12-29T09:20:17;18.10;52.20
7077;DHT22;3579;48.956;9.154;2022-12-29T09:22:45;18.10;52.20
7077;DHT22;3579;48.956;9.154;2022-12-29T09:25:12;18.10;52.30
7077;DHT22;3579;48.956;9.154;2022-12-29T09:27:38;18.20;52.40
7077;DHT22;3579;48.956;9.154;2022-12-29T09:30:06;18.20;52.30
7077;DHT22;3579;48.956;9.154;2022-12-29T09:32:33;18.20;52.30
7077;DHT22;3579;48.956;9.154;2022-12-29T09:35:00;18.20;52.20
7077;DHT22;3579;48.956;9.154;2022-12-29T09:37:26;18.30;52.30
7077;DHT22;3579;48.956;9.154;2022-12-29T09:39:52;18.30;52.30
7077;DHT22;3579;48.956;9.154;2022-12-29T09:42:29;18.30;52.30
7077;DHT22;3579;48.956;9.154;2022-12-29T09:48:01;18.30;52.30
7077;DHT22;3579;48.956;9.154;2022-12-29T09:50:31;18.30;52.30
7077;DHT22;3579;48.956;9.154;2022-12-29T09:53:19;18.30;52.30
7077;DHT22;3579;48.956;9.154;2022-12-29T09:55:53;18.40;52.30
7077;DHT22;3579;48.956;9.154;2022-12-29T09:58:25;18.40;52.30
7077;DHT22;3579;48.956;9.154;2022-12-29T10:01:07;18.40;52.40
7077;DHT22;3579;48.956;9.154;2022-12-29T10:03:49;18.40;52.40
7077;DHT22;3579;48.956;9.154;2022-12-29T10:14:21;18.40;52.30
7077;DHT22;3579;48.956;9.154;2022-12-29T10:23:00;18.50;52.40
7077;DHT22;3579;48.956;9.154;2022-12-29T10:25:30;18.50;52.40
7077;DHT22;3579;48.956;9.154;2022-12-29T10:28:00;18.50;52.40
7077;DHT22;3579;48.956;9.154;2022-12-29T10:30:29;18.50;52.40
7077;DHT22;3579;48.956;9.154;2022-12-29T10:33:01;18.50;52.40
7077;DHT22;3579;48.956;9.154;2022-12-29T10:35:38;18.50;52.40
7077;DHT22;3579;48.956;9.154;2022-12-29T10:40:58;18.50;52.30
7077;DHT22;3579;48.956;9.154;2022-12-29T10:46:14;18.60;52.40
7077;DHT22;3579;48.956;9.154;2022-12-29T10:48:41;18.60;52.40
7077;DHT22;3579;48.956;9.154;2022-12-29T10:51:20;18.60;52.40
7077;DHT22;3579;48.956;9.154;2022-12-29T10:56:52;18.60;52.30
7077;DHT22;3579;48.956;9.154;2022-12-29T10:59:31;18.70;52.40
7077;DHT22;3579;48.956;9.154;2022-12-29T11:07:24;18.70;52.30
7077;DHT22;3579;48.956;9.154;2022-12-29T11:09:52;18.80;52.50
7077;DHT22;3579;48.956;9.154;2022-12-29T11:14:46;18.80;52.40
7077;DHT22;3579;48.956;9.154;2022-12-29T11:17:17;18.80;52.30
7077;DHT22;3579;48.956;9.154;2022-12-29T11:19:44;18.80;52.30
7077;DHT22;3579;48.956;9.154;2022-12-29T11:22:23;18.80;52.40
7077;DHT22;3579;48.956;9.154;2022-12-29T11:24:51;18.80;52.30
7077;DHT22;3579;48.956;9.154;2022-12-29T11:27:22;18.90;52.40
7077;DHT22;3579;48.956;9.154;2022-12-29T11:29:50;18.90;52.40
7077;DHT22;3579;48.956;9.154;2022-12-29T11:32:26;18.90;52.30
7077;DHT22;3579;48.956;9.154;2022-12-29T11:34:52;18.90;52.40
7077;DHT22;3579;48.956;9.154;2022-12-29T11:40:05;18.90;52.30
7077;DHT22;3579;48.956;9.154;2022-12-29T11:42:50;18.90;52.30
7077;DHT22;3579;48.956;9.154;2022-12-29T11:45:25;18.90;52.30
7077;DHT22;3579;48.956;9.154;2022-12-29T11:48:16;19.00;52.30
7077;DHT22;3579;48.956;9.154;2022-12-29T11:50:50;19.00;52.30
7077;DHT22;3579;48.956;9.154;2022-12-29T11:53:28;19.00;52.30
7077;DHT22;3579;48.956;9.154;2022-12-29T11:56:02;19.00;52.30
7077;DHT22;3579;48.956;9.154;2022-12-29T11:58:34;19.00;52.30
7077;DHT22;3579;48.956;9.154;2022-12-29T12:03:52;19.00;52.30
7077;DHT22;3579;48.956;9.154;2022-12-29T12:06:23;19.00;52.30
7077;DHT22;3579;48.956;9.154;2022-12-29T12:09:27;19.00;52.30
7077;DHT22;3579;48.956;9.154;2022-12-29T12:11:55;19.00;52.10
7077;DHT22;3579;48.956;9.154;2022-12-29T12:14:36;19.00;52.20
7077;DHT22;3579;48.956;9.154;2022-12-29T12:17:28;19.00;52.20
7077;DHT22;3579;48.956;9.154;2022-12-29T12:25:39;19.10;52.30
7077;DHT22;3579;48.956;9.154;2022-12-29T12:30:58;19.10;52.20
7077;DHT22;3579;48.956;9.154;2022-12-29T12:33:38;18.70;51.90
7077;DHT22;3579;48.956;9.154;2022-12-29T12:36:43;19.10;52.20
7077;DHT22;3579;48.956;9.154;2022-12-29T12:39:34;19.10;52.20
7077;DHT22;3579;48.956;9.154;2022-12-29T12:56:19;19.20;52.20
7077;DHT22;3579;48.956;9.154;2022-12-29T13:19:11;19.20;52.20
7077;DHT22;3579;48.956;9.154;2022-12-29T13:24:26;19.30;52.20
7077;DHT22;3579;48.956;9.154;2022-12-29T13:27:43;19.30;52.20
7077;DHT22;3579;48.956;9.154;2022-12-29T13:30:18;19.30;52.20
7077;DHT22;3579;48.956;9.154;2022-12-29T13:36:16;19.30;52.20
7077;DHT22;3579;48.956;9.154;2022-12-29T13:38:48;19.30;52.20
7077;DHT22;3579;48.956;9.154;2022-12-29T13:41:27;19.30;52.20
7077;DHT22;3579;48.956;9.154;2022-12-29T13:43:58;19.30;52.20
7077;DHT22;3579;48.956;9.154;2022-12-29T13:46:38;19.30;52.20
7077;DHT22;3579;48.956;9.154;2022-12-29T13:51:57;19.30;52.20
7077;DHT22;3579;48.956;9.154;2022-12-29T13:55:07;19.30;52.20
7077;DHT22;3579;48.956;9.154;2022-12-29T13:57:46;19.30;52.20
7077;DHT22;3579;48.956;9.154;2022-12-29T14:00:19;19.30;52.10
7077;DHT22;3579;48.956;9.154;2022-12-29T14:07:49;19.30;52.20
7077;DHT22;3579;48.956;9.154;2022-12-29T14:10:35;19.40;52.20
7077;DHT22;3579;48.956;9.154;2022-12-29T14:13:19;18.00;51.10
7077;DHT22;3579;48.956;9.154;2022-12-29T14:15:54;19.40;52.20
7077;DHT22;3579;48.956;9.154;2022-12-29T14:18:25;19.40;52.20
7077;DHT22;3579;48.956;9.154;2022-12-29T14:20:56;19.40;52.20
7077;DHT22;3579;48.956;9.154;2022-12-29T14:26:12;19.40;52.20
7077;DHT22;3579;48.956;9.154;2022-12-29T14:28:47;19.40;52.20
7077;DHT22;3579;48.956;9.154;2022-12-29T14:33:40;19.40;52.10
7077;DHT22;3579;48.956;9.154;2022-12-29T14:36:33;19.40;52.20
7077;DHT22;3579;48.956;9.154;2022-12-29T14:39:00;19.40;52.20
7077;DHT22;3579;48.956;9.154;2022-12-29T14:41:30;19.40;52.20
7077;DHT22;3579;48.956;9.154;2022-12-29T14:46:55;19.40;52.20
7077;DHT22;3579;48.956;9.154;2022-12-29T14:49:28;19.40;52.20
7077;DHT22;3579;48.956;9.154;2022-12-29T14:52:20;19.40;52.20
7077;DHT22;3579;48.956;9.154;2022-12-29T14:54:55;19.40;52.20
7077;DHT22;3579;48.956;9.154;2022-12-29T15:00:06;19.40;52.20
7077;DHT22;3579;48.956;9.154;2022-12-29T15:02:36;19.40;52.20
7077;DHT22;3579;48.956;9.154;2022-12-29T15:05:05;19.40;52.20
7077;DHT22;3579;48.956;9.154;2022-12-29T15:07:32;19.30;52.10
7077;DHT22;3579;48.956;9.154;2022-12-29T15:10:06;19.40;52.20
7077;DHT22;3579;48.956;9.154;2022-12-29T15:15:24;19.40;52.20
7077;DHT22;3579;48.956;9.154;2022-12-29T15:17:50;19.40;52.20
7077;DHT22;3579;48.956;9.154;2022-12-29T15:22:54;19.30;52.20
7077;DHT22;3579;48.956;9.154;2022-12-29T15:25:20;19.30;52.10
7077;DHT22;3579;48.956;9.154;2022-12-29T15:27:55;19.30;52.10
7077;DHT22;3579;48.956;9.154;2022-12-29T15:30:23;19.30;52.20
7077;DHT22;3579;48.956;9.154;2022-12-29T15:32:49;19.30;52.20
7077;DHT22;3579;48.956;9.154;2022-12-29T15:37:53;19.30;52.20
7077;DHT22;3579;48.956;9.154;2022-12-29T15:40:32;19.30;52.20
7077;DHT22;3579;48.956;9.154;2022-12-29T15:46:07;19.30;52.20
7077;DHT22;3579;48.956;9.154;2022-12-29T15:48:33;19.30;52.30
7077;DHT22;3579;48.956;9.154;2022-12-29T15:51:00;19.30;52.20
7077;DHT22;3579;48.956;9.154;2022-12-29T15:53:29;19.30;52.20
7077;DHT22;3579;48.956;9.154;2022-12-29T15:56:00;19.30;52.20
7077;DHT22;3579;48.956;9.154;2022-12-29T15:58:29;19.30;52.20
7077;DHT22;3579;48.956;9.154;2022-12-29T16:00:58;19.30;52.30
7077;DHT22;3579;48.956;9.154;2022-12-29T16:03:28;19.30;52.20
7077;DHT22;3579;48.956;9.154;2022-12-29T16:08:59;19.30;52.20
7077;DHT22;3579;48.956;9.154;2022-12-29T16:11:50;19.20;52.20
7077;DHT22;3579;48.956;9.154;2022-12-29T16:14:20;19.20;52.20
7077;DHT22;3579;48.956;9.154;2022-12-29T16:16:47;19.20;52.20
7077;DHT22;3579;48.956;9.154;2022-12-29T16:19:24;19.20;52.20
7077;DHT22;3579;48.956;9.154;2022-12-29T16:21:51;19.20;52.20
7077;DHT22;3579;48.956;9.154;2022-12-29T16:24:26;19.20;52.20
7077;DHT22;3579;48.956;9.154;2022-12-29T16:27:12;19.20;52.20
7077;DHT22;3579;48.956;9.154;2022-12-29T16:29:41;19.20;52.20
7077;DHT22;3579;48.956;9.154;2022-12-29T16:32:29;19.20;52.30
7077;DHT22;3579;48.956;9.154;2022-12-29T16:38:21;19.20;52.80
7077;DHT22;3579;48.956;9.154;2022-12-29T16:40:58;19.20;52.30
7077;DHT22;3579;48.956;9.154;2022-12-29T16:43:35;19.20;52.40
7077;DHT22;3579;48.956;9.154;2022-12-29T16:46:27;19.20;52.40
7077;DHT22;3579;48.956;9.154;2022-12-29T16:48:55;19.20;52.40
7077;DHT22;3579;48.956;9.154;2022-12-29T16:51:32;19.20;52.40
7077;DHT22;3579;48.956;9.154;2022-12-29T16:54:00;19.20;52.40
7077;DHT22;3579;48.956;9.154;2022-12-29T16:56:30;19.20;52.40
7077;DHT22;3579;48.956;9.154;2022-12-29T16:59:06;19.20;52.40
7077;DHT22;3579;48.956;9.154;2022-12-29T17:01:37;19.20;52.40
7077;DHT22;3579;48.956;9.154;2022-12-29T17:04:10;19.20;52.50
7077;DHT22;3579;48.956;9.154;2022-12-29T17:06:36;19.10;52.40
7077;DHT22;3579;48.956;9.154;2022-12-29T17:09:15;19.10;52.40
7077;DHT22;3579;48.956;9.154;2022-12-29T17:11:41;19.10;52.40
7077;DHT22;3579;48.956;9.154;2022-12-29T17:17:34;19.10;52.50
7077;DHT22;3579;48.956;9.154;2022-12-29T17:22:36;19.10;52.40
7077;DHT22;3579;48.956;9.154;2022-12-29T17:25:02;19.10;52.40
7077;DHT22;3579;48.956;9.154;2022-12-29T17:27:48;19.10;52.40
7077;DHT22;3579;48.956;9.154;2022-12-29T17:30:23;19.20;52.40
7077;DHT22;3579;48.956;9.154;2022-12-29T17:32:52;19.20;52.80
7077;DHT22;3579;48.956;9.154;2022-12-29T17:35:21;19.20;52.80
7077;DHT22;3579;48.956;9.154;2022-12-29T17:37:48;19.10;52.70
7077;DHT22;3579;48.956;9.154;2022-12-29T17:40:16;19.10;52.70
7077;DHT22;3579;48.956;9.154;2022-12-29T17:42:46;19.20;52.90
7077;DHT22;3579;48.956;9.154;2022-12-29T17:45:17;19.10;52.80
7077;DHT22;3579;48.956;9.154;2022-12-29T17:47:45;19.10;52.80
7077;DHT22;3579;48.956;9.154;2022-12-29T17:50:16;19.10;52.80
7077;DHT22;3579;48.956;9.154;2022-12-29T17:52:45;19.10;52.70
7077;DHT22;3579;48.956;9.154;2022-12-29T17:55:17;19.10;52.70
7077;DHT22;3579;48.956;9.154;2022-12-29T17:57:44;19.10;52.70
7077;DHT22;3579;48.956;9.154;2022-12-29T18:00:19;19.10;52.70
7077;DHT22;3579;48.956;9.154;2022-12-29T18:02:47;19.10;52.70
7077;DHT22;3579;48.956;9.154;2022-12-29T18:05:25;19.10;52.70
7077;DHT22;3579;48.956;9.154;2022-12-29T18:07:52;19.10;52.70
7077;DHT22;3579;48.956;9.154;2022-12-29T18:10:21;19.00;52.70
7077;DHT22;3579;48.956;9.154;2022-12-29T18:12:49;19.10;52.70
7077;DHT22;3579;48.956;9.154;2022-12-29T18:15:24;19.10;52.70
7077;DHT22;3579;48.956;9.154;2022-12-29T18:18:15;19.00;52.70
7077;DHT22;3579;48.956;9.154;2022-12-29T18:20:42;19.00;53.20
7077;DHT22;3579;48.956;9.154;2022-12-29T18:25:54;19.00;52.70
7077;DHT22;3579;48.956;9.154;2022-12-29T18:28:21;19.00;52.70
7077;DHT22;3579;48.956;9.154;2022-12-29T18:30:48;19.00;52.80
7077;DHT22;3579;48.956;9.154;2022-12-29T18:33:17;19.00;52.80
7077;DHT22;3579;48.956;9.154;2022-12-29T18:36:03;19.00;53.30
7077;DHT22;3579;48.956;9.154;2022-12-29T18:38:30;19.00;52.70
7077;DHT22;3579;48.956;9.154;2022-12-29T18:40:58;19.00;52.70
7077;DHT22;3579;48.956;9.154;2022-12-29T18:43:24;19.00;52.70
7077;DHT22;3579;48.956;9.154;2022-12-29T18:45:50;18.90;52.70
7077;DHT22;3579;48.956;9.154;2022-12-29T18:48:18;18.90;52.70
7077;DHT22;3579;48.956;9.154;2022-12-29T18:50:46;18.90;52.70
7077;DHT22;3579;48.956;9.154;2022-12-29T18:53:18;18.90;52.70
7077;DHT22;3579;48.956;9.154;2022-12-29T18:55:45;18.90;52.70
7077;DHT22;3579;48.956;9.154;2022-12-29T18:58:11;18.90;52.70
7077;DHT22;3579;48.956;9.154;2022-12-29T19:00:37;18.80;52.60
7077;DHT22;3579;48.956;9.154;2022-12-29T19:03:04;18.80;52.70
7077;DHT22;3579;48.956;9.154;2022-12-29T19:05:35;18.80;52.70
7077;DHT22;3579;48.956;9.154;2022-12-29T19:08:02;18.80;52.70
7077;DHT22;3579;48.956;9.154;2022-12-29T19:10:28;18.80;52.70